createdAt,value
2023-05-20T00:00:38.229Z,12.80
2023-05-20T00:03:05.100Z,12.70
2023-05-20T00:05:31.819Z,12.70
2023-05-20T00:07:59.538Z,12.60
2023-05-20T00:10:26.295Z,12.50
2023-05-20T00:12:52.931Z,12.50
2023-05-20T00:15:19.473Z,12.40
2023-05-20T00:17:45.995Z,12.50
2023-05-20T00:20:12.674Z,12.50
2023-05-20T00:22:39.251Z,12.40
2023-05-20T00:25:06.092Z,12.50
2023-05-20T00:27:32.657Z,12.40
2023-05-20T00:29:59.217Z,12.40
2023-05-20T00:32:26.139Z,12.40
2023-05-20T00:34:57.420Z,12.40
2023-05-20T00:37:24.241Z,12.40
2023-05-20T00:39:51.119Z,12.30
2023-05-20T00:42:24.633Z,12.30
2023-05-20T00:44:51.465Z,12.30
2023-05-20T00:47:18.897Z,12.30
2023-05-20T00:49:47.574Z,12.30
2023-05-20T00:52:17.344Z,12.30
2023-05-20T00:54:44.424Z,12.20
2023-05-20T00:57:11.203Z,12.30
2023-05-20T00:59:38.321Z,12.20
2023-05-20T01:02:05.389Z,12.10
2023-05-20T01:04:32.427Z,12.20
2023-05-20T01:07:00.926Z,12.10
2023-05-20T01:09:27.781Z,12.10
2023-05-20T01:11:56.775Z,12.10
2023-05-20T01:14:24.970Z,12.10
2023-05-20T01:16:52.289Z,12.20
2023-05-20T01:19:45.170Z,12.30
2023-05-20T01:22:12.944Z,12.30
2023-05-20T01:24:43.313Z,12.20
2023-05-20T01:27:10.939Z,12.20
2023-05-20T01:29:37.851Z,12.10
2023-05-20T01:32:06.305Z,12.00
2023-05-20T01:34:33.942Z,12.00
2023-05-20T01:37:01.042Z,12.00
2023-05-20T01:39:27.841Z,12.00
2023-05-20T01:41:55.089Z,12.00
2023-05-20T01:44:21.976Z,11.90
2023-05-20T01:46:49.161Z,12.00
2023-05-20T01:49:15.838Z,11.90
2023-05-20T01:51:42.431Z,11.90
2023-05-20T01:54:08.969Z,11.80
2023-05-20T01:56:35.541Z,11.70
2023-05-20T01:59:02.089Z,11.70
2023-05-20T02:01:28.757Z,11.70
2023-05-20T02:03:55.537Z,11.60
2023-05-20T02:06:22.274Z,11.50
2023-05-20T02:08:48.843Z,11.50
2023-05-20T02:11:15.391Z,11.50
2023-05-20T02:13:41.966Z,11.50
2023-05-20T02:16:08.579Z,11.40
2023-05-20T02:18:35.335Z,11.50
2023-05-20T02:21:05.221Z,11.40
2023-05-20T02:23:31.813Z,11.40
2023-05-20T02:25:58.368Z,11.40
2023-05-20T02:28:24.934Z,11.30
2023-05-20T02:30:51.721Z,11.30
2023-05-20T02:33:18.773Z,11.30
2023-05-20T02:35:45.423Z,11.30
2023-05-20T02:38:15.008Z,11.30
2023-05-20T02:40:44.964Z,11.20
2023-05-20T02:43:11.512Z,11.20
2023-05-20T02:45:38.112Z,11.20
2023-05-20T02:48:04.819Z,11.20
2023-05-20T02:50:31.387Z,11.10
2023-05-20T02:52:58.112Z,11.10
2023-05-20T02:55:24.664Z,11.10
2023-05-20T02:57:51.221Z,11.00
2023-05-20T03:00:18.797Z,11.00
2023-05-20T03:02:45.454Z,11.00
2023-05-20T03:05:12.307Z,11.00
2023-05-20T03:07:38.915Z,11.00
2023-05-20T03:10:06.609Z,11.00
2023-05-20T03:12:33.196Z,10.90
2023-05-20T03:15:01.011Z,11.00
2023-05-20T03:17:27.617Z,11.00
2023-05-20T03:19:54.480Z,10.90
2023-05-20T03:22:21.221Z,10.80
2023-05-20T03:24:48.169Z,10.80
2023-05-20T03:27:14.720Z,10.80
2023-05-20T03:29:41.344Z,10.70
2023-05-20T03:32:10.102Z,10.70
2023-05-20T03:34:38.127Z,10.80
2023-05-20T03:37:04.851Z,10.80
2023-05-20T03:39:31.342Z,10.70
2023-05-20T03:41:57.881Z,10.70
2023-05-20T03:44:24.391Z,10.70
2023-05-20T03:46:51.253Z,10.70
2023-05-20T03:49:17.884Z,10.60
2023-05-20T03:51:44.565Z,10.60
2023-05-20T03:54:11.889Z,10.60
2023-05-20T03:56:38.431Z,10.60
2023-05-20T03:59:05.492Z,10.50
2023-05-20T04:01:32.103Z,10.50
2023-05-20T04:03:58.745Z,10.60
2023-05-20T04:06:26.563Z,10.60
2023-05-20T04:08:53.413Z,10.50
2023-05-20T04:11:20.009Z,10.50
2023-05-20T04:13:46.590Z,10.50
2023-05-20T04:16:13.230Z,10.40
2023-05-20T04:18:40.977Z,10.40
2023-05-20T04:21:08.234Z,10.40
2023-05-20T04:23:34.840Z,10.40
2023-05-20T04:26:02.768Z,10.40
2023-05-20T04:28:31.274Z,10.40
2023-05-20T04:30:58.855Z,10.50
2023-05-20T04:33:26.502Z,10.60
2023-05-20T04:35:53.116Z,10.60
2023-05-20T04:38:19.705Z,10.60
2023-05-20T04:40:46.435Z,10.70
2023-05-20T04:43:12.963Z,10.70
2023-05-20T04:45:40.302Z,10.80
2023-05-20T04:48:06.923Z,10.80
2023-05-20T04:50:34.803Z,10.80
2023-05-20T04:53:01.388Z,10.90
2023-05-20T04:55:28.698Z,10.90
2023-05-20T04:57:55.367Z,10.90
2023-05-20T05:00:21.942Z,11.00
2023-05-20T05:02:48.609Z,11.10
2023-05-20T05:05:15.444Z,11.20
2023-05-20T05:07:42.019Z,11.30
2023-05-20T05:10:08.853Z,11.40
2023-05-20T05:12:35.452Z,11.50
2023-05-20T05:15:01.985Z,11.60
2023-05-20T05:17:28.772Z,11.60
2023-05-20T05:19:55.594Z,11.80
2023-05-20T05:22:22.227Z,11.90
2023-05-20T05:24:48.773Z,11.90
2023-05-20T05:27:15.321Z,11.90
2023-05-20T05:29:41.811Z,12.00
2023-05-20T05:32:08.403Z,12.10
2023-05-20T05:34:34.994Z,12.20
2023-05-20T05:37:01.533Z,12.10
2023-05-20T05:39:28.124Z,12.20
2023-05-20T05:41:56.091Z,12.30
2023-05-20T05:44:22.637Z,12.30
2023-05-20T05:46:49.308Z,12.30
2023-05-20T05:49:15.889Z,12.50
2023-05-20T05:51:42.492Z,12.40
2023-05-20T05:54:09.060Z,12.60
2023-05-20T05:56:35.662Z,12.70
2023-05-20T05:59:02.432Z,12.70
2023-05-20T06:01:29.073Z,12.80
2023-05-20T06:03:55.643Z,12.90
2023-05-20T06:06:22.301Z,13.00
2023-05-20T06:08:51.463Z,13.30
2023-05-20T06:11:18.014Z,13.10
2023-05-20T06:13:44.582Z,13.20
2023-05-20T06:16:11.264Z,13.40
2023-05-20T06:18:37.852Z,13.60
2023-05-20T06:21:04.616Z,13.80
2023-05-20T06:23:31.183Z,13.80
2023-05-20T06:25:59.224Z,13.90
2023-05-20T06:28:26.249Z,14.10
2023-05-20T06:30:54.761Z,14.30
2023-05-20T06:33:25.821Z,14.20
2023-05-20T06:35:56.303Z,14.40
2023-05-20T06:38:23.097Z,14.50
2023-05-20T06:40:49.952Z,14.60
2023-05-20T06:43:16.832Z,15.00
2023-05-20T06:45:44.055Z,15.10
2023-05-20T06:48:11.058Z,15.20
2023-05-20T06:50:38.053Z,14.80
2023-05-20T06:53:04.582Z,15.10
2023-05-20T06:55:31.295Z,15.10
2023-05-20T06:57:57.841Z,15.20
2023-05-20T07:00:24.490Z,14.90
2023-05-20T07:02:51.232Z,15.10
2023-05-20T07:05:17.942Z,15.50
2023-05-20T07:07:44.582Z,15.50
2023-05-20T07:10:11.260Z,15.70
2023-05-20T07:12:37.818Z,15.70
2023-05-20T07:15:04.890Z,15.90
2023-05-20T07:17:31.451Z,15.90
2023-05-20T07:19:58.035Z,15.60
2023-05-20T07:22:24.636Z,15.90
2023-05-20T07:24:51.214Z,15.90
2023-05-20T07:27:17.750Z,16.30
2023-05-20T07:29:44.435Z,15.80
2023-05-20T07:32:11.333Z,16.10
2023-05-20T07:34:37.959Z,16.40
2023-05-20T07:37:04.602Z,16.20
2023-05-20T07:39:31.146Z,16.10
2023-05-20T07:41:57.771Z,16.20
2023-05-20T07:44:24.379Z,16.70
2023-05-20T07:46:50.969Z,17.00
2023-05-20T07:49:17.591Z,16.90
2023-05-20T07:51:44.230Z,16.80
2023-05-20T07:54:10.913Z,16.60
2023-05-20T07:56:37.491Z,16.60
2023-05-20T07:59:04.300Z,17.00
2023-05-20T08:01:30.901Z,17.30
2023-05-20T08:03:57.556Z,17.10
2023-05-20T08:06:25.452Z,17.20
2023-05-20T08:08:56.468Z,17.00
2023-05-20T08:11:23.002Z,17.00
2023-05-20T08:13:50.005Z,17.40
2023-05-20T08:16:16.628Z,16.90
2023-05-20T08:18:43.278Z,17.10
2023-05-20T08:21:09.991Z,17.10
2023-05-20T08:23:40.211Z,17.30
2023-05-20T08:26:07.526Z,17.20
2023-05-20T08:28:34.233Z,17.80
2023-05-20T08:31:11.076Z,17.70
2023-05-20T08:33:37.805Z,17.60
2023-05-20T08:36:04.459Z,17.60
2023-05-20T08:38:31.027Z,18.00
2023-05-20T08:40:57.674Z,18.10
2023-05-20T08:43:24.599Z,18.20
2023-05-20T08:45:54.779Z,18.10
2023-05-20T08:48:22.937Z,17.70
2023-05-20T08:50:52.690Z,17.60
2023-05-20T08:53:20.216Z,18.00
2023-05-20T08:55:48.904Z,17.90
2023-05-20T08:58:15.923Z,18.20
2023-05-20T09:00:42.552Z,19.10
2023-05-20T09:03:10.080Z,18.80
2023-05-20T09:05:37.017Z,19.00
2023-05-20T09:08:07.765Z,19.50
2023-05-20T09:10:34.689Z,20.00
2023-05-20T09:13:02.500Z,20.00
2023-05-20T09:15:29.026Z,19.40
2023-05-20T09:17:55.920Z,19.80
2023-05-20T09:20:23.004Z,20.30
2023-05-20T09:22:51.841Z,20.20
2023-05-20T09:25:24.120Z,20.10
2023-05-20T09:27:51.014Z,20.30
2023-05-20T09:30:21.446Z,19.80
2023-05-20T09:32:58.405Z,20.20
2023-05-20T09:35:26.130Z,20.10
2023-05-20T09:37:54.790Z,20.30
2023-05-20T09:40:23.672Z,20.40
2023-05-20T09:42:52.561Z,20.20
2023-05-20T09:45:19.162Z,20.50
2023-05-20T09:47:46.483Z,20.90
2023-05-20T09:50:14.857Z,21.60
2023-05-20T09:52:42.081Z,21.90
2023-05-20T09:55:10.364Z,21.70
2023-05-20T09:57:37.395Z,21.90
2023-05-20T10:00:08.521Z,22.20
2023-05-20T10:02:35.518Z,22.10
2023-05-20T10:05:05.741Z,21.70
2023-05-20T10:07:56.732Z,21.10
2023-05-20T10:10:35.062Z,20.60
2023-05-20T10:13:21.542Z,20.40
2023-05-20T10:16:13.553Z,20.90
2023-05-20T10:18:46.359Z,21.30
2023-05-20T10:21:25.924Z,21.10
2023-05-20T10:23:52.488Z,20.70
2023-05-20T10:26:19.284Z,21.00
2023-05-20T10:28:46.110Z,21.00
2023-05-20T10:31:17.658Z,20.90
2023-05-20T10:33:45.444Z,21.20
2023-05-20T10:36:31.852Z,20.60
2023-05-20T10:38:59.141Z,20.90
2023-05-20T10:41:27.038Z,21.40
2023-05-20T10:44:04.055Z,21.40
2023-05-20T10:46:38.513Z,21.80
2023-05-20T10:49:20.189Z,21.90
2023-05-20T10:51:48.385Z,22.30
2023-05-20T10:54:15.234Z,22.80
2023-05-20T10:56:51.331Z,23.60
2023-05-20T10:59:18.028Z,24.70
2023-05-20T11:01:46.376Z,23.80
2023-05-20T11:04:13.872Z,22.90
2023-05-20T11:06:49.974Z,22.80
2023-05-20T11:09:16.589Z,22.80
2023-05-20T11:11:43.138Z,22.80
2023-05-20T11:14:13.624Z,22.60
2023-05-20T11:16:40.968Z,21.90
2023-05-20T11:19:08.771Z,22.00
2023-05-20T11:21:42.501Z,21.40
2023-05-20T11:24:09.084Z,21.50
2023-05-20T11:26:36.426Z,21.10
2023-05-20T11:29:04.913Z,20.90
2023-05-20T11:31:32.211Z,21.10
2023-05-20T11:34:02.256Z,21.00
2023-05-20T11:36:28.827Z,20.60
2023-05-20T11:38:57.408Z,21.00
2023-05-20T11:41:27.705Z,21.10
2023-05-20T11:43:58.232Z,21.40
2023-05-20T11:46:25.071Z,21.40
2023-05-20T11:48:55.095Z,22.00
2023-05-20T11:51:28.714Z,22.20
2023-05-20T11:54:04.787Z,22.10
2023-05-20T11:56:32.965Z,22.80
2023-05-20T11:59:00.224Z,23.70
2023-05-20T12:01:28.200Z,24.10
2023-05-20T12:03:55.289Z,24.20
2023-05-20T12:06:21.913Z,24.40
2023-05-20T12:08:48.600Z,23.80
2023-05-20T12:11:15.173Z,24.00
2023-05-20T12:13:41.836Z,24.00
2023-05-20T12:16:08.406Z,24.00
2023-05-20T12:18:34.997Z,23.60
2023-05-20T12:21:01.837Z,23.40
2023-05-20T12:23:33.931Z,22.50
2023-05-20T12:26:01.131Z,22.30
2023-05-20T12:28:27.924Z,23.70
2023-05-20T12:30:54.453Z,24.60
2023-05-20T12:33:21.158Z,24.90
2023-05-20T12:35:47.837Z,24.90
2023-05-20T12:38:14.531Z,24.50
2023-05-20T12:40:41.360Z,24.10
2023-05-20T12:43:07.995Z,23.10
2023-05-20T12:45:34.594Z,22.30
2023-05-20T12:48:01.372Z,22.30
2023-05-20T12:50:28.220Z,22.20
2023-05-20T12:52:55.046Z,22.40
2023-05-20T12:55:21.792Z,22.50
2023-05-20T12:57:48.402Z,22.70
2023-05-20T13:00:15.240Z,22.90
2023-05-20T13:02:42.644Z,23.20
2023-05-20T13:05:10.347Z,23.20
2023-05-20T13:07:37.020Z,22.80
2023-05-20T13:10:03.692Z,22.90
2023-05-20T13:12:30.413Z,22.50
2023-05-20T13:14:56.919Z,22.30
2023-05-20T13:17:23.455Z,22.50
2023-05-20T13:19:50.384Z,22.50
2023-05-20T13:22:16.990Z,22.70
2023-05-20T13:24:43.636Z,22.40
2023-05-20T13:27:10.677Z,22.50
2023-05-20T13:29:37.316Z,22.90
2023-05-20T13:32:04.277Z,23.80
2023-05-20T13:34:31.678Z,24.10
2023-05-20T13:36:58.342Z,23.90
2023-05-20T13:39:24.960Z,23.90
2023-05-20T13:41:53.475Z,23.40
2023-05-20T13:44:20.561Z,23.00
2023-05-20T13:46:47.227Z,22.50
2023-05-20T13:49:13.928Z,22.30
2023-05-20T13:51:40.484Z,22.70
2023-05-20T13:54:07.017Z,22.50
2023-05-20T13:56:34.010Z,22.80
2023-05-20T13:59:00.992Z,23.50
2023-05-20T14:01:28.432Z,23.00
2023-05-20T14:03:55.168Z,22.90
2023-05-20T14:06:22.225Z,22.60
2023-05-20T14:08:48.856Z,22.20
2023-05-20T14:11:15.412Z,22.70
2023-05-20T14:13:41.936Z,22.50
2023-05-20T14:16:08.571Z,22.80
2023-05-20T14:18:35.216Z,22.70
2023-05-20T14:21:01.838Z,22.50
2023-05-20T14:23:28.330Z,22.30
2023-05-20T14:25:54.998Z,22.10
2023-05-20T14:28:21.555Z,22.20
2023-05-20T14:30:48.250Z,22.20
2023-05-20T14:33:14.890Z,21.90
2023-05-20T14:35:41.487Z,22.00
2023-05-20T14:38:08.094Z,22.20
2023-05-20T14:40:34.915Z,21.90
2023-05-20T14:43:01.787Z,21.60
2023-05-20T14:45:28.307Z,21.70
2023-05-20T14:47:54.885Z,21.30
2023-05-20T14:50:21.630Z,21.50
2023-05-20T14:52:48.157Z,21.40
2023-05-20T14:55:14.848Z,21.70
2023-05-20T14:57:41.436Z,22.00
2023-05-20T15:00:09.325Z,21.80
2023-05-20T15:02:36.079Z,22.00
2023-05-20T15:05:02.790Z,21.90
2023-05-20T15:07:29.311Z,21.70
2023-05-20T15:09:55.876Z,21.40
2023-05-20T15:12:22.439Z,21.00
2023-05-20T15:14:48.996Z,21.10
2023-05-20T15:17:15.588Z,20.70
2023-05-20T15:19:42.272Z,20.80
2023-05-20T15:22:08.977Z,21.10
2023-05-20T15:24:35.656Z,20.90
2023-05-20T15:27:02.221Z,20.90
2023-05-20T15:29:28.784Z,21.10
2023-05-20T15:31:55.365Z,21.10
2023-05-20T15:34:21.982Z,21.10
2023-05-20T15:36:48.566Z,21.00
2023-05-20T15:39:15.276Z,20.90
2023-05-20T15:41:42.385Z,20.90
2023-05-20T15:44:09.089Z,21.10
2023-05-20T15:46:36.012Z,20.90
2023-05-20T15:49:02.782Z,20.50
2023-05-20T15:51:29.402Z,20.20
2023-05-20T15:53:55.963Z,20.10
2023-05-20T15:56:22.966Z,19.90
2023-05-20T15:58:49.629Z,19.90
2023-05-20T16:01:16.194Z,19.90
2023-05-20T16:03:43.364Z,19.80
2023-05-20T16:06:11.636Z,19.80
2023-05-20T16:08:38.636Z,19.90
2023-05-20T16:11:05.486Z,19.90
2023-05-20T16:13:32.044Z,20.10
2023-05-20T16:15:59.578Z,20.30
2023-05-20T16:18:28.432Z,20.40
2023-05-20T16:20:55.501Z,20.30
2023-05-20T16:23:22.160Z,20.50
2023-05-20T16:25:48.733Z,20.60
2023-05-20T16:28:15.696Z,20.70
2023-05-20T16:30:42.334Z,20.80
2023-05-20T16:33:08.989Z,20.80
2023-05-20T16:35:35.632Z,20.90
2023-05-20T16:38:02.237Z,20.80
2023-05-20T16:40:28.885Z,20.70
2023-05-20T16:42:55.722Z,20.60
2023-05-20T16:45:22.399Z,20.70
2023-05-20T16:47:49.044Z,20.90
2023-05-20T16:50:16.042Z,20.70
2023-05-20T16:52:42.689Z,20.60
2023-05-20T16:55:10.195Z,20.40
2023-05-20T16:57:36.846Z,20.20
2023-05-20T17:00:07.864Z,20.30
2023-05-20T17:05:05.107Z,20.30
2023-05-20T17:07:33.414Z,20.20
2023-05-20T17:10:00.260Z,20.10
2023-05-20T17:12:27.065Z,20.30
2023-05-20T17:14:53.840Z,20.20
2023-05-20T17:17:21.293Z,19.90
2023-05-20T17:19:48.083Z,19.90
2023-05-20T17:22:14.677Z,19.90
2023-05-20T17:24:41.231Z,19.80
2023-05-20T17:27:07.870Z,19.80
2023-05-20T17:29:34.435Z,19.50
2023-05-20T17:32:01.293Z,19.10
2023-05-20T17:34:27.909Z,19.20
2023-05-20T17:36:54.532Z,19.10
2023-05-20T17:39:21.447Z,19.30
2023-05-20T17:41:48.052Z,19.30
2023-05-20T17:44:14.702Z,19.30
2023-05-20T17:46:41.582Z,19.30
2023-05-20T17:49:08.282Z,19.30
2023-05-20T17:51:35.100Z,19.20
2023-05-20T17:54:01.814Z,19.00
2023-05-20T17:56:28.557Z,19.00
2023-05-20T17:58:56.242Z,18.90
2023-05-20T18:01:23.476Z,18.90
2023-05-20T18:03:50.357Z,18.80
2023-05-20T18:06:17.921Z,19.20
2023-05-20T18:08:44.598Z,19.70
2023-05-20T18:11:11.272Z,20.00
2023-05-20T18:13:37.915Z,20.10
2023-05-20T18:16:04.786Z,20.00
2023-05-20T18:18:31.415Z,20.40
2023-05-20T18:20:57.958Z,20.60
2023-05-20T18:23:24.532Z,20.80
2023-05-20T18:25:51.118Z,21.00
2023-05-20T18:28:17.650Z,20.80
2023-05-20T18:30:44.316Z,20.90
2023-05-20T18:33:11.033Z,20.60
2023-05-20T18:35:38.926Z,20.50
2023-05-20T18:38:05.685Z,20.60
2023-05-20T18:40:32.323Z,20.40
2023-05-20T18:42:59.078Z,20.30
2023-05-20T18:45:26.009Z,20.00
2023-05-20T18:47:54.136Z,19.90
2023-05-20T18:50:21.027Z,19.80
2023-05-20T18:52:50.858Z,19.90
2023-05-20T18:55:17.744Z,19.70
2023-05-20T18:57:44.250Z,19.40
2023-05-20T19:00:12.366Z,19.30
2023-05-20T19:02:40.160Z,19.00
2023-05-20T19:05:07.590Z,18.80
2023-05-20T19:07:34.263Z,18.60
2023-05-20T19:10:02.366Z,18.40
2023-05-20T19:12:29.137Z,18.20
2023-05-20T19:14:56.005Z,18.00
2023-05-20T19:17:22.866Z,17.90
2023-05-20T19:19:49.660Z,17.80
2023-05-20T19:22:16.519Z,17.70
2023-05-20T19:24:43.094Z,17.60
2023-05-20T19:27:09.644Z,17.50
2023-05-20T19:29:36.323Z,17.50
2023-05-20T19:32:03.028Z,17.40
2023-05-20T19:34:29.643Z,17.30
2023-05-20T19:36:57.061Z,17.20
2023-05-20T19:39:23.858Z,17.20
2023-05-20T19:41:50.862Z,17.10
2023-05-20T19:44:18.871Z,17.10
2023-05-20T19:46:45.448Z,17.00
2023-05-20T19:49:12.080Z,17.00
2023-05-20T19:51:38.606Z,17.00
2023-05-20T19:54:05.232Z,17.00
2023-05-20T19:56:31.784Z,16.90
2023-05-20T19:59:01.518Z,16.80
2023-05-20T20:01:28.361Z,16.80
2023-05-20T20:03:55.106Z,16.70
2023-05-20T20:06:21.831Z,16.60
2023-05-20T20:08:48.442Z,16.60
2023-05-20T20:11:15.131Z,16.60
2023-05-20T20:13:41.752Z,16.50
2023-05-20T20:16:08.591Z,16.50
2023-05-20T20:18:35.291Z,16.40
2023-05-20T20:21:05.640Z,16.50
2023-05-20T20:23:32.653Z,16.40
2023-05-20T20:25:59.191Z,16.30
2023-05-20T20:28:25.766Z,16.30
2023-05-20T20:30:53.662Z,16.20
2023-05-20T20:33:22.325Z,16.10
2023-05-20T20:35:48.915Z,16.10
2023-05-20T20:38:16.002Z,16.00
2023-05-20T20:40:42.702Z,15.90
2023-05-20T20:43:10.390Z,15.90
2023-05-20T20:45:37.271Z,15.80
2023-05-20T20:48:08.054Z,15.80
2023-05-20T20:50:35.668Z,15.70
2023-05-20T20:53:02.417Z,15.70
2023-05-20T20:55:31.676Z,15.70
2023-05-20T20:57:58.300Z,15.70
2023-05-20T21:00:26.833Z,15.70
2023-05-20T21:02:53.511Z,15.60
2023-05-20T21:05:21.201Z,15.50
2023-05-20T21:07:49.938Z,15.50
2023-05-20T21:10:17.616Z,15.40
2023-05-20T21:12:44.218Z,15.40
2023-05-20T21:15:12.460Z,15.40
2023-05-20T21:17:39.119Z,15.30
2023-05-20T21:20:09.596Z,15.30
2023-05-20T21:22:36.297Z,15.30
2023-05-20T21:25:03.069Z,15.30
2023-05-20T21:27:29.717Z,15.20
2023-05-20T21:29:56.349Z,15.20
2023-05-20T21:32:22.984Z,15.10
2023-05-20T21:34:49.521Z,15.10
2023-05-20T21:37:16.154Z,15.10
2023-05-20T21:39:45.120Z,15.00
2023-05-20T21:42:11.766Z,15.00
2023-05-20T21:44:38.264Z,15.00
2023-05-20T21:47:04.970Z,15.00
2023-05-20T21:49:31.490Z,14.80
2023-05-20T21:51:58.041Z,14.80
2023-05-20T21:54:24.582Z,14.70
2023-05-20T21:56:51.452Z,14.70
2023-05-20T21:59:18.051Z,14.70
2023-05-20T22:01:44.753Z,14.70
2023-05-20T22:04:11.918Z,14.70
2023-05-20T22:06:39.744Z,14.60
2023-05-20T22:09:06.535Z,14.60
2023-05-20T22:11:33.646Z,14.60
2023-05-20T22:14:00.326Z,14.60
2023-05-20T22:16:26.983Z,14.50
2023-05-20T22:18:54.109Z,14.50
2023-05-20T22:21:21.446Z,14.50
2023-05-20T22:23:48.285Z,14.50
2023-05-20T22:26:14.915Z,14.50
2023-05-20T22:28:41.616Z,14.50
2023-05-20T22:31:08.355Z,14.40
2023-05-20T22:33:34.967Z,14.30
2023-05-20T22:36:01.630Z,14.30
2023-05-20T22:38:29.762Z,14.30
2023-05-20T22:40:56.496Z,14.30
2023-05-20T22:43:23.612Z,14.20
2023-05-20T22:45:50.267Z,14.10
2023-05-20T22:48:16.866Z,14.10
2023-05-20T22:50:43.388Z,14.10
2023-05-20T22:53:10.015Z,14.10
2023-05-20T22:55:38.719Z,14.00
2023-05-20T22:58:05.275Z,14.00
2023-05-20T23:00:32.125Z,13.90
2023-05-20T23:02:58.820Z,13.90
2023-05-20T23:05:25.467Z,13.90
2023-05-20T23:07:52.979Z,13.90
2023-05-20T23:10:19.885Z,13.90
2023-05-20T23:12:46.447Z,13.90
2023-05-20T23:15:13.155Z,13.90
2023-05-20T23:17:39.806Z,13.90
2023-05-20T23:20:10.971Z,13.90
2023-05-20T23:22:37.939Z,13.80
2023-05-20T23:25:05.661Z,13.80
2023-05-20T23:27:32.403Z,13.80
2023-05-20T23:29:59.009Z,13.80
2023-05-20T23:32:25.728Z,13.70
2023-05-20T23:34:55.433Z,13.70
2023-05-20T23:37:22.079Z,13.70
2023-05-20T23:39:48.709Z,13.70
2023-05-20T23:42:15.322Z,13.70
2023-05-20T23:44:41.919Z,13.70
2023-05-20T23:47:09.622Z,13.70
2023-05-20T23:49:37.122Z,13.70
2023-05-20T23:52:03.820Z,13.60
2023-05-20T23:54:34.206Z,13.70
2023-05-20T23:57:01.015Z,13.60
2023-05-20T23:59:27.691Z,13.60
